createdAt,value
2023-02-16T00:04:41.202Z,40.83
2023-02-16T00:07:08.870Z,39.85
2023-02-16T00:09:36.433Z,40.30
2023-02-16T00:12:23.337Z,40.65
2023-02-16T00:14:50.974Z,39.25
2023-02-16T00:17:18.365Z,40.95
2023-02-16T00:19:47.440Z,40.63
2023-02-16T00:22:16.234Z,40.35
2023-02-16T00:24:47.200Z,40.50
2023-02-16T00:27:17.532Z,40.63
2023-02-16T00:32:15.974Z,37.25
2023-02-16T00:34:45.765Z,40.65
2023-02-16T00:37:15.880Z,39.28
2023-02-16T00:39:46.243Z,39.10
2023-02-16T00:42:20.182Z,40.17
2023-02-16T00:44:49.071Z,39.53
2023-02-16T00:47:23.105Z,40.38
2023-02-16T00:49:52.419Z,38.95
2023-02-16T00:52:34.192Z,40.00
2023-02-16T00:55:04.089Z,40.55
2023-02-16T00:57:34.579Z,41.70
2023-02-16T01:03:45.177Z,40.75
2023-02-16T01:06:31.891Z,40.05
2023-02-16T01:09:23.378Z,40.03
2023-02-16T01:11:50.904Z,40.55
2023-02-16T01:14:18.974Z,41.78
2023-02-16T01:16:46.661Z,40.67
2023-02-16T01:19:17.316Z,40.97
2023-02-16T01:21:47.623Z,42.17
2023-02-16T01:24:16.147Z,40.95
2023-02-16T01:26:46.333Z,40.78
2023-02-16T01:29:17.892Z,42.28
2023-02-16T01:31:48.776Z,40.63
2023-02-16T01:34:16.901Z,39.92
2023-02-16T01:36:46.444Z,39.13
2023-02-16T01:39:18.602Z,40.63
2023-02-16T01:41:56.802Z,39.05
2023-02-16T01:44:42.200Z,39.28
2023-02-16T01:47:20.469Z,39.00
2023-02-16T01:49:51.302Z,40.58
2023-02-16T01:52:44.413Z,40.22
2023-02-16T01:55:14.500Z,38.88
2023-02-16T01:58:09.721Z,39.97
2023-02-16T02:00:50.701Z,41.25
2023-02-16T02:03:47.576Z,41.20
2023-02-16T02:06:18.295Z,41.55
2023-02-16T02:08:58.102Z,40.70
2023-02-16T02:11:30.436Z,39.40
2023-02-16T02:14:04.024Z,40.28
2023-02-16T02:16:31.791Z,39.17
2023-02-16T02:19:00.560Z,38.72
2023-02-16T02:21:52.533Z,39.22
2023-02-16T02:24:39.335Z,37.83
2023-02-16T02:27:07.100Z,39.00
2023-02-16T02:29:50.595Z,38.05
2023-02-16T02:32:24.008Z,39.22
2023-02-16T02:35:10.305Z,39.45
2023-02-16T02:37:47.416Z,40.60
2023-02-16T02:40:24.329Z,38.72
2023-02-16T02:43:05.927Z,40.53
2023-02-16T02:45:35.863Z,39.30
2023-02-16T02:48:04.557Z,41.05
2023-02-16T02:51:09.174Z,40.55
2023-02-16T02:53:45.441Z,39.30
2023-02-16T02:56:36.093Z,41.03
2023-02-16T02:59:29.744Z,42.63
2023-02-16T03:02:00.354Z,42.28
2023-02-16T03:04:29.594Z,38.80
2023-02-16T03:06:58.777Z,41.40
2023-02-16T03:09:26.682Z,40.92
2023-02-16T03:12:14.927Z,40.40
2023-02-16T03:14:45.291Z,42.35
2023-02-16T03:17:34.038Z,42.55
2023-02-16T03:20:21.514Z,42.47
2023-02-16T03:23:08.336Z,39.03
2023-02-16T03:25:56.138Z,41.08
2023-02-16T03:28:45.685Z,41.30
2023-02-16T03:31:16.581Z,40.42
2023-02-16T03:33:50.371Z,40.65
2023-02-16T03:36:19.555Z,41.08
2023-02-16T03:38:47.142Z,41.20
2023-02-16T03:41:15.551Z,41.47
2023-02-16T03:43:44.617Z,41.78
2023-02-16T03:46:12.589Z,42.08
2023-02-16T03:48:40.028Z,41.75
2023-02-16T03:51:08.438Z,41.65
2023-02-16T03:53:36.096Z,41.30
2023-02-16T03:56:03.676Z,42.58
2023-02-16T03:58:31.183Z,42.72
2023-02-16T04:00:59.437Z,43.88
2023-02-16T04:03:27.562Z,42.85
2023-02-16T04:05:56.466Z,42.83
2023-02-16T04:08:27.343Z,42.47
2023-02-16T04:10:56.902Z,43.78
2023-02-16T04:13:24.980Z,42.97
2023-02-16T04:15:52.851Z,42.88
2023-02-16T04:18:20.584Z,42.33
2023-02-16T04:20:48.632Z,44.63
2023-02-16T04:23:17.063Z,42.65
2023-02-16T04:25:45.511Z,42.58
2023-02-16T04:28:15.105Z,43.22
2023-02-16T04:30:42.950Z,43.33
2023-02-16T04:33:12.421Z,45.20
2023-02-16T04:35:40.312Z,43.35
2023-02-16T04:38:07.717Z,45.03
2023-02-16T04:40:35.663Z,45.92
2023-02-16T04:43:04.925Z,44.22
2023-02-16T04:45:33.183Z,44.28
2023-02-16T04:48:05.966Z,44.92
2023-02-16T04:50:33.766Z,44.25
2023-02-16T04:53:03.204Z,43.97
2023-02-16T04:55:31.184Z,44.22
2023-02-16T04:58:01.245Z,46.03
2023-02-16T05:00:28.917Z,44.90
2023-02-16T05:02:57.788Z,45.13
2023-02-16T05:05:25.949Z,45.03
2023-02-16T05:07:54.192Z,44.53
2023-02-16T05:10:21.866Z,45.95
2023-02-16T05:13:11.336Z,45.25
2023-02-16T05:15:39.468Z,45.65
2023-02-16T05:18:07.607Z,47.33
2023-02-16T05:20:53.659Z,47.05
2023-02-16T05:23:21.582Z,47.97
2023-02-16T05:25:49.342Z,47.33
2023-02-16T05:28:16.993Z,47.67
2023-02-16T05:30:46.862Z,48.35
2023-02-16T05:33:15.515Z,48.80
2023-02-16T05:35:44.387Z,46.33
2023-02-16T05:38:12.765Z,47.55
2023-02-16T05:40:40.202Z,46.72
2023-02-16T05:43:08.186Z,48.55
2023-02-16T05:45:35.801Z,47.45
2023-02-16T05:48:03.707Z,45.90
2023-02-16T05:50:31.575Z,46.25
2023-02-16T05:53:01.996Z,48.58
2023-02-16T05:55:30.323Z,47.13
2023-02-16T05:57:58.024Z,46.00
2023-02-16T06:00:26.142Z,46.80
2023-02-16T06:02:53.853Z,46.33
2023-02-16T06:05:21.572Z,46.17
2023-02-16T06:07:49.308Z,46.97
2023-02-16T06:10:18.895Z,47.33
2023-02-16T06:12:46.572Z,45.78
2023-02-16T06:15:15.008Z,47.92
2023-02-16T06:17:46.814Z,44.92
2023-02-16T06:20:15.763Z,45.95
2023-02-16T06:22:45.907Z,45.78
2023-02-16T06:25:14.446Z,47.13
2023-02-16T06:27:42.010Z,45.20
2023-02-16T06:30:10.842Z,46.65
2023-02-16T06:32:38.855Z,45.72
2023-02-16T06:35:06.971Z,45.85
2023-02-16T06:37:36.228Z,45.47
2023-02-16T06:40:04.002Z,46.30
2023-02-16T06:42:31.720Z,44.50
2023-02-16T06:44:59.860Z,44.40
2023-02-16T06:47:27.387Z,45.40
2023-02-16T06:49:55.325Z,45.42
2023-02-16T06:52:24.517Z,44.55
2023-02-16T06:54:55.026Z,44.88
2023-02-16T06:59:53.581Z,45.22
2023-02-16T07:02:21.411Z,44.10
2023-02-16T07:04:49.001Z,45.22
2023-02-16T07:07:17.038Z,45.38
2023-02-16T07:09:45.722Z,44.50
2023-02-16T07:12:14.274Z,44.63
2023-02-16T07:14:43.873Z,44.58
2023-02-16T07:17:11.702Z,44.50
2023-02-16T07:19:40.646Z,44.20
2023-02-16T07:22:08.387Z,45.90
2023-02-16T07:24:36.006Z,43.78
2023-02-16T07:27:09.098Z,45.35
2023-02-16T07:29:37.752Z,44.65
2023-02-16T07:32:06.881Z,45.05
2023-02-16T07:34:34.498Z,44.25
2023-02-16T07:37:02.152Z,45.35
2023-02-16T07:39:30.954Z,44.63
2023-02-16T07:41:58.602Z,43.60
2023-02-16T07:44:27.166Z,45.55
2023-02-16T07:46:54.776Z,43.22
2023-02-16T07:49:22.211Z,43.38
2023-02-16T07:51:49.924Z,43.17
2023-02-16T07:54:17.810Z,42.78
2023-02-16T07:56:47.118Z,43.72
2023-02-16T07:59:17.274Z,42.35
2023-02-16T08:01:46.591Z,43.88
2023-02-16T08:04:15.363Z,43.70
2023-02-16T08:06:42.973Z,44.40
2023-02-16T08:09:11.727Z,44.58
2023-02-16T08:11:39.453Z,43.80
2023-02-16T08:14:07.489Z,41.60
2023-02-16T08:16:35.329Z,44.08
2023-02-16T08:19:04.887Z,42.67
2023-02-16T08:21:37.357Z,42.50
2023-02-16T08:24:09.111Z,43.80
2023-02-16T08:26:40.452Z,44.05
2023-02-16T08:29:15.836Z,44.83
2023-02-16T08:31:45.520Z,44.72
2023-02-16T08:34:18.542Z,42.13
2023-02-16T08:36:48.129Z,43.97
2023-02-16T08:39:19.097Z,44.47
2023-02-16T08:41:48.738Z,43.60
2023-02-16T08:44:17.116Z,46.80
2023-02-16T08:46:46.823Z,42.97
2023-02-16T08:49:18.880Z,41.53
2023-02-16T08:51:48.499Z,43.83
2023-02-16T08:54:24.546Z,43.13
2023-02-16T08:56:53.329Z,42.65
2023-02-16T08:59:21.748Z,44.70
2023-02-16T09:01:49.666Z,44.92
2023-02-16T09:04:17.864Z,42.88
2023-02-16T09:06:48.566Z,44.05
2023-02-16T09:09:16.619Z,45.15
2023-02-16T09:11:45.166Z,44.53
2023-02-16T09:14:12.798Z,43.72
2023-02-16T09:16:46.048Z,45.83
2023-02-16T09:19:17.629Z,44.72
2023-02-16T09:21:51.249Z,43.90
2023-02-16T09:24:19.497Z,44.08
2023-02-16T09:26:47.938Z,41.80
2023-02-16T09:29:17.346Z,43.38
2023-02-16T09:31:45.742Z,43.90
2023-02-16T09:34:21.506Z,42.58
2023-02-16T09:36:49.861Z,41.50
2023-02-16T09:39:18.744Z,42.75
2023-02-16T09:42:02.009Z,42.22
2023-02-16T09:44:39.792Z,44.65
2023-02-16T09:47:14.436Z,44.90
2023-02-16T09:49:45.685Z,43.50
2023-02-16T09:52:32.169Z,45.60
2023-02-16T09:55:01.004Z,41.67
2023-02-16T09:57:28.432Z,43.55
2023-02-16T10:00:15.889Z,43.75
2023-02-16T10:02:51.202Z,41.17
2023-02-16T10:05:20.413Z,42.67
2023-02-16T10:08:00.202Z,42.72
2023-02-16T10:10:32.137Z,44.05
2023-02-16T10:13:05.335Z,42.55
2023-02-16T10:15:33.692Z,41.90
2023-02-16T10:18:08.493Z,42.85
2023-02-16T10:20:38.518Z,44.42
2023-02-16T10:23:09.164Z,44.65
2023-02-16T10:25:48.897Z,43.78
2023-02-16T10:28:22.852Z,43.77
2023-02-16T10:30:54.927Z,42.92
2023-02-16T10:33:29.169Z,46.38
2023-02-16T10:35:59.897Z,44.95
2023-02-16T10:38:34.856Z,44.42
2023-02-16T10:41:04.858Z,43.92
2023-02-16T10:43:51.045Z,45.00
2023-02-16T10:46:24.684Z,45.67
2023-02-16T10:48:56.594Z,46.33
2023-02-16T10:51:28.469Z,44.35
2023-02-16T10:56:36.171Z,43.97
2023-02-16T10:59:07.086Z,47.20
2023-02-16T11:01:46.258Z,46.55
2023-02-16T11:04:32.772Z,45.75
2023-02-16T11:07:08.702Z,46.03
2023-02-16T11:09:37.142Z,45.92
2023-02-16T11:12:17.313Z,47.55
2023-02-16T11:14:55.764Z,46.72
2023-02-16T11:17:24.559Z,45.15
2023-02-16T11:20:05.944Z,48.00
2023-02-16T11:22:38.056Z,49.30
2023-02-16T11:25:15.567Z,49.33
2023-02-16T11:27:50.818Z,49.88
2023-02-16T11:30:24.021Z,46.95
2023-02-16T11:32:52.569Z,47.20
2023-02-16T11:35:20.225Z,48.50
2023-02-16T11:37:48.437Z,48.17
2023-02-16T11:40:21.762Z,49.03
2023-02-16T11:42:51.135Z,50.03
2023-02-16T11:45:33.947Z,49.30
2023-02-16T11:48:03.591Z,46.90
2023-02-16T11:50:35.529Z,49.35
2023-02-16T11:53:09.466Z,48.00
2023-02-16T11:55:38.941Z,48.50
2023-02-16T11:58:18.312Z,47.70
2023-02-16T12:00:52.122Z,48.17
2023-02-16T12:03:20.049Z,48.70
2023-02-16T12:05:53.910Z,49.03
2023-02-16T12:08:44.299Z,49.58
2023-02-16T12:11:26.636Z,49.83
2023-02-16T12:14:04.723Z,49.08
2023-02-16T12:16:37.601Z,47.90
2023-02-16T12:19:08.807Z,47.53
2023-02-16T12:22:09.293Z,48.90
2023-02-16T12:24:43.096Z,47.13
2023-02-16T12:27:15.754Z,47.90
2023-02-16T12:29:47.981Z,47.42
2023-02-16T12:32:22.624Z,48.22
2023-02-16T12:35:02.387Z,47.80
2023-02-16T12:37:30.078Z,49.03
2023-02-16T12:40:04.170Z,47.85
2023-02-16T12:42:43.220Z,46.65
2023-02-16T12:45:21.605Z,48.55
2023-02-16T12:48:19.841Z,47.78
2023-02-16T12:50:50.310Z,46.67
2023-02-16T12:53:28.321Z,46.92
2023-02-16T12:56:07.781Z,47.35
2023-02-16T12:58:47.110Z,44.83
2023-02-16T13:01:29.697Z,45.40
2023-02-16T13:04:07.747Z,41.03
2023-02-16T13:06:37.970Z,39.80
2023-02-16T13:09:41.573Z,38.33
2023-02-16T13:12:18.104Z,41.60
2023-02-16T13:14:49.461Z,39.17
2023-02-16T13:17:21.691Z,38.83
2023-02-16T13:19:49.310Z,38.30
2023-02-16T13:22:37.950Z,37.35
2023-02-16T13:25:29.117Z,36.78
2023-02-16T13:28:24.331Z,36.17
2023-02-16T13:31:15.867Z,36.65
2023-02-16T13:34:06.991Z,35.70
2023-02-16T13:36:59.083Z,35.20
2023-02-16T13:39:48.263Z,36.75
2023-02-16T13:42:48.258Z,35.58
2023-02-16T13:45:41.236Z,34.17
2023-02-16T13:48:37.788Z,34.00
2023-02-16T13:51:10.864Z,34.90
2023-02-16T13:53:40.511Z,34.45
2023-02-16T13:56:29.942Z,33.85
2023-02-16T13:59:19.911Z,32.55
2023-02-16T14:01:53.651Z,32.72
2023-02-16T14:04:24.000Z,32.20
2023-02-16T14:07:08.358Z,30.92
2023-02-16T14:09:38.682Z,31.85
2023-02-16T14:12:19.786Z,31.13
2023-02-16T14:14:58.223Z,31.98
2023-02-16T14:17:32.391Z,30.63
2023-02-16T14:20:16.292Z,29.08
2023-02-16T14:22:44.631Z,27.65
2023-02-16T14:25:24.398Z,28.02
2023-02-16T14:28:02.179Z,28.70
2023-02-16T14:30:48.346Z,28.92
2023-02-16T14:33:18.991Z,28.58
2023-02-16T14:36:12.817Z,28.20
2023-02-16T14:38:41.576Z,26.63
2023-02-16T14:41:31.243Z,27.02
2023-02-16T14:44:04.663Z,26.33
2023-02-16T14:46:44.417Z,24.67
2023-02-16T14:49:15.396Z,25.33
2023-02-16T14:51:55.658Z,23.50
2023-02-16T14:54:51.321Z,22.58
2023-02-16T14:57:30.424Z,23.30
2023-02-16T15:00:19.519Z,22.73
2023-02-16T15:02:59.448Z,22.55
2023-02-16T15:05:32.474Z,23.00
2023-02-16T15:08:16.682Z,23.45
2023-02-16T15:10:49.244Z,23.33
2023-02-16T15:13:26.274Z,24.02
2023-02-16T15:15:56.842Z,22.88
2023-02-16T15:18:30.112Z,22.80
2023-02-16T15:20:58.585Z,22.70
2023-02-16T15:23:31.534Z,22.23
2023-02-16T15:26:03.699Z,22.83
2023-02-16T15:28:36.145Z,22.23
2023-02-16T15:31:11.025Z,21.73
2023-02-16T15:33:44.997Z,23.60
2023-02-16T15:36:19.247Z,23.13
2023-02-16T15:39:02.290Z,22.50
2023-02-16T15:41:37.409Z,21.75
2023-02-16T15:44:07.019Z,22.08
2023-02-16T15:46:45.009Z,23.43
2023-02-16T15:49:27.469Z,22.10
2023-02-16T15:51:56.805Z,22.33
2023-02-16T15:54:28.187Z,22.05
2023-02-16T15:57:00.031Z,22.73
2023-02-16T16:02:53.094Z,23.70
2023-02-16T16:05:27.685Z,24.17
2023-02-16T16:07:56.001Z,23.15
2023-02-16T16:10:32.904Z,24.10
2023-02-16T16:13:12.998Z,24.00
2023-02-16T16:15:45.627Z,26.15
2023-02-16T16:18:39.878Z,24.23
2023-02-16T16:21:34.442Z,24.83
2023-02-16T16:24:01.913Z,24.48
2023-02-16T16:26:32.858Z,24.65
2023-02-16T16:29:00.427Z,24.83
2023-02-16T16:31:28.305Z,24.02
2023-02-16T16:34:01.312Z,24.13
2023-02-16T16:36:56.421Z,24.30
2023-02-16T16:39:29.030Z,26.10
2023-02-16T16:42:19.923Z,24.15
2023-02-16T16:44:55.979Z,24.65
2023-02-16T16:47:29.783Z,24.05
2023-02-16T16:50:15.421Z,24.27
2023-02-16T16:52:51.732Z,24.42
2023-02-16T16:55:21.620Z,24.58
2023-02-16T16:57:55.744Z,26.17
2023-02-16T17:00:28.443Z,26.17
2023-02-16T17:02:56.110Z,27.25
2023-02-16T17:05:23.400Z,28.45
2023-02-16T17:07:51.951Z,31.25
2023-02-16T17:10:20.989Z,30.42
2023-02-16T17:12:52.289Z,30.92
2023-02-16T17:15:29.228Z,32.92
2023-02-16T17:17:57.451Z,32.80
2023-02-16T17:20:25.370Z,33.38
2023-02-16T17:22:55.218Z,35.08
2023-02-16T17:25:22.653Z,35.55
2023-02-16T17:27:49.900Z,34.28
2023-02-16T17:30:17.235Z,33.83
2023-02-16T17:32:47.472Z,34.67
2023-02-16T17:35:15.870Z,35.25
2023-02-16T17:37:46.285Z,35.38
2023-02-16T17:42:45.894Z,35.53
2023-02-16T17:45:15.597Z,35.80
2023-02-16T17:47:53.146Z,37.22
2023-02-16T17:50:24.531Z,38.60
2023-02-16T17:52:57.232Z,36.97
2023-02-16T17:55:28.732Z,37.28
2023-02-16T17:57:58.227Z,37.22
2023-02-16T18:00:25.479Z,38.28
2023-02-16T18:02:52.571Z,37.50
2023-02-16T18:05:19.859Z,36.53
2023-02-16T18:07:48.739Z,37.05
2023-02-16T18:10:30.842Z,36.92
2023-02-16T18:12:57.899Z,37.05
2023-02-16T18:15:25.130Z,36.53
2023-02-16T18:17:55.088Z,35.53
2023-02-16T18:20:23.102Z,33.83
2023-02-16T18:22:51.027Z,33.53
2023-02-16T18:25:19.617Z,34.90
2023-02-16T18:27:47.766Z,32.65
2023-02-16T18:30:17.280Z,33.97
2023-02-16T18:32:45.908Z,35.42
2023-02-16T18:35:17.745Z,33.90
2023-02-16T18:37:46.847Z,34.50
2023-02-16T18:40:17.582Z,33.30
2023-02-16T18:42:46.082Z,35.33
2023-02-16T18:45:14.389Z,35.35
2023-02-16T18:47:47.788Z,35.85
2023-02-16T18:50:19.963Z,34.85
2023-02-16T18:52:47.768Z,35.90
2023-02-16T18:55:18.471Z,34.70
2023-02-16T18:57:49.483Z,35.65
2023-02-16T19:00:17.293Z,35.60
2023-02-16T19:02:46.277Z,37.60
2023-02-16T19:05:14.485Z,36.35
2023-02-16T19:07:45.018Z,36.28
2023-02-16T19:12:40.562Z,35.17
2023-02-16T19:15:09.034Z,37.67
2023-02-16T19:17:38.576Z,38.88
2023-02-16T19:20:09.996Z,38.10
2023-02-16T19:22:38.453Z,38.10
2023-02-16T19:25:06.575Z,38.22
2023-02-16T19:27:34.293Z,38.20
2023-02-16T19:30:01.520Z,38.05
2023-02-16T19:32:31.010Z,37.72
2023-02-16T19:34:59.169Z,38.20
2023-02-16T19:37:26.350Z,38.95
2023-02-16T19:39:53.590Z,39.17
2023-02-16T19:42:21.902Z,39.80
2023-02-16T19:44:49.241Z,41.08
2023-02-16T19:47:17.034Z,41.22
2023-02-16T19:49:45.650Z,40.63
2023-02-16T19:52:14.458Z,41.47
2023-02-16T19:54:41.987Z,41.92
2023-02-16T19:57:09.353Z,42.60
2023-02-16T19:59:36.595Z,43.78
2023-02-16T20:02:03.951Z,43.75
2023-02-16T20:04:31.615Z,44.70
2023-02-16T20:06:59.088Z,44.30
2023-02-16T20:09:26.566Z,43.13
2023-02-16T20:11:57.137Z,45.03
2023-02-16T20:16:52.009Z,43.15
2023-02-16T20:19:19.220Z,44.20
2023-02-16T20:21:49.284Z,45.42
2023-02-16T20:24:16.958Z,44.72
2023-02-16T20:26:50.015Z,44.42
2023-02-16T20:29:17.379Z,46.67
2023-02-16T20:31:56.262Z,47.42
2023-02-16T20:34:26.542Z,47.15
2023-02-16T20:36:59.356Z,45.95
2023-02-16T20:39:26.703Z,46.05
2023-02-16T20:41:55.226Z,45.63
2023-02-16T20:44:22.802Z,45.40
2023-02-16T20:46:51.423Z,45.58
2023-02-16T20:49:19.362Z,44.67
2023-02-16T20:51:46.969Z,46.38
2023-02-16T20:54:14.461Z,46.15
2023-02-16T20:56:42.083Z,46.03
2023-02-16T20:59:11.943Z,46.00
2023-02-16T21:01:46.785Z,45.03
2023-02-16T21:04:18.779Z,45.63
2023-02-16T21:06:46.786Z,44.38
2023-02-16T21:09:15.719Z,45.38
2023-02-16T21:11:45.458Z,44.15
2023-02-16T21:14:15.990Z,43.45
2023-02-16T21:19:22.444Z,44.33
2023-02-16T21:21:51.742Z,43.85
2023-02-16T21:24:19.301Z,44.03
2023-02-16T21:26:46.856Z,43.80
2023-02-16T21:29:15.353Z,45.10
2023-02-16T21:31:43.523Z,45.80
2023-02-16T21:34:14.100Z,44.08
2023-02-16T21:36:41.402Z,45.60
2023-02-16T21:39:08.852Z,46.70
2023-02-16T21:41:36.176Z,45.42
2023-02-16T21:44:14.207Z,44.30
2023-02-16T21:46:45.586Z,44.92
2023-02-16T21:49:15.908Z,44.33
2023-02-16T21:51:46.845Z,46.40
2023-02-16T21:54:17.621Z,45.83
2023-02-16T21:56:51.621Z,45.83
2023-02-16T21:59:22.931Z,47.75
2023-02-16T22:01:52.021Z,47.17
2023-02-16T22:04:23.596Z,48.08
2023-02-16T22:06:52.268Z,47.58
2023-02-16T22:09:22.613Z,47.75
2023-02-16T22:11:52.024Z,46.65
2023-02-16T22:14:19.446Z,47.35
2023-02-16T22:16:48.465Z,45.92
2023-02-16T22:19:18.025Z,47.58
2023-02-16T22:21:48.522Z,48.87
2023-02-16T22:24:19.211Z,46.85
2023-02-16T22:29:16.969Z,48.05
2023-02-16T22:31:47.063Z,48.60
2023-02-16T22:34:20.168Z,47.53
2023-02-16T22:36:48.410Z,47.53
2023-02-16T22:39:17.184Z,46.80
2023-02-16T22:41:45.396Z,46.80
2023-02-16T22:44:12.834Z,48.03
2023-02-16T22:46:40.122Z,46.38
2023-02-16T22:49:07.743Z,47.22
2023-02-16T22:51:35.325Z,48.63
2023-02-16T22:54:07.227Z,46.75
2023-02-16T22:56:36.165Z,46.95
2023-02-16T22:59:04.584Z,45.88
2023-02-16T23:01:32.907Z,46.47
2023-02-16T23:04:01.504Z,46.83
2023-02-16T23:06:34.179Z,46.28
2023-02-16T23:09:16.201Z,44.88
2023-02-16T23:11:44.458Z,45.05
2023-02-16T23:14:18.364Z,41.63
2023-02-16T23:16:50.781Z,41.83
2023-02-16T23:19:23.506Z,37.15
2023-02-16T23:21:51.389Z,34.53
2023-02-16T23:24:21.063Z,34.25
2023-02-16T23:26:49.250Z,33.03
2023-02-16T23:29:17.348Z,32.63
2023-02-16T23:31:47.293Z,29.98
2023-02-16T23:34:16.015Z,30.05
2023-02-16T23:36:44.356Z,29.77
2023-02-16T23:39:15.569Z,27.98
2023-02-16T23:41:45.833Z,28.58
2023-02-16T23:44:15.178Z,28.52
2023-02-16T23:46:42.539Z,28.23
2023-02-16T23:49:10.701Z,26.60
2023-02-16T23:51:38.649Z,26.35
2023-02-16T23:54:05.808Z,27.80
2023-02-16T23:56:33.002Z,27.55
2023-02-16T23:59:01.577Z,26.40
